createdAt,value
2017-09-20T00:00:30.801Z,1017.5
2017-09-20T00:05:35.859Z,1017.5
2017-09-20T00:10:41.253Z,1017.4
2017-09-20T00:15:46.653Z,1017.4
2017-09-20T00:20:51.716Z,1017.5
2017-09-20T00:25:56.440Z,1017.5
2017-09-20T00:31:02.176Z,1017.4
2017-09-20T00:36:07.565Z,1017.4
2017-09-20T00:41:12.623Z,1017.4
2017-09-20T00:46:18.018Z,1017.4
2017-09-20T00:51:23.079Z,1017.4
2017-09-20T00:56:28.475Z,1017.5
2017-09-20T01:01:33.870Z,1017.4
2017-09-20T01:06:38.925Z,1017.4
2017-09-20T01:11:44.659Z,1017.4
2017-09-20T01:16:49.729Z,1017.4
2017-09-20T01:21:55.127Z,1017.4
2017-09-20T01:27:00.853Z,1017.3
2017-09-20T01:32:05.917Z,1017.2
2017-09-20T01:37:11.319Z,1017.1
2017-09-20T01:42:16.384Z,1017.2
2017-09-20T01:47:21.779Z,1017.2
2017-09-20T01:52:26.838Z,1017.3
2017-09-20T01:57:32.233Z,1017.3
2017-09-20T02:02:38.303Z,1017.3
2017-09-20T02:07:44.023Z,1017.3
2017-09-20T02:12:48.419Z,1017.3
2017-09-20T02:17:53.484Z,1017.3
2017-09-20T02:22:58.873Z,1017.4
2017-09-20T02:28:03.933Z,1017.4
2017-09-20T02:33:09.328Z,1017.3
2017-09-20T02:38:14.722Z,1017.3
2017-09-20T02:43:19.442Z,1017.3
2017-09-20T02:48:24.499Z,1017.3
2017-09-20T02:53:29.559Z,1017.3
2017-09-20T02:58:34.950Z,1017.3
2017-09-20T03:03:40.007Z,1017.3
2017-09-20T03:08:44.731Z,1017.4
2017-09-20T03:13:49.451Z,1017.3
2017-09-20T03:18:55.180Z,1017.4
2017-09-20T03:23:59.901Z,1017.4
2017-09-20T03:29:04.625Z,1017.5
2017-09-20T03:34:10.019Z,1017.5
2017-09-20T03:39:15.074Z,1017.5
2017-09-20T03:44:20.138Z,1017.4
2017-09-20T03:49:25.533Z,1017.5
2017-09-20T03:54:30.923Z,1017.5
2017-09-20T03:59:36.318Z,1017.5
2017-09-20T04:04:42.385Z,1017.5
2017-09-20T04:09:47.780Z,1017.5
2017-09-20T04:14:52.836Z,1017.5
2017-09-20T04:19:58.230Z,1017.5
2017-09-20T04:25:03.286Z,1017.5
2017-09-20T04:30:07.725Z,1017.5
2017-09-20T04:35:12.447Z,1017.5
2017-09-20T04:40:18.227Z,1017.5
2017-09-20T04:45:23.284Z,1017.5
2017-09-20T04:50:28.344Z,1017.6
2017-09-20T04:55:34.078Z,1017.6
2017-09-20T05:00:39.460Z,1017.6
2017-09-20T05:05:44.864Z,1017.6
2017-09-20T05:10:50.256Z,1017.7
2017-09-20T05:15:56.324Z,1017.7
2017-09-20T05:21:01.716Z,1017.7
2017-09-20T05:26:07.449Z,1017.7
2017-09-20T05:31:12.241Z,1017.7
2017-09-20T05:36:17.635Z,1017.7
2017-09-20T05:41:22.370Z,1017.7
2017-09-20T05:46:27.434Z,1017.7
2017-09-20T05:51:32.834Z,1017.8
2017-09-20T05:56:38.102Z,1017.8
2017-09-20T06:01:43.827Z,1017.8
2017-09-20T06:06:48.885Z,1017.7
2017-09-20T06:11:53.943Z,1017.7
2017-09-20T06:16:59.686Z,1017.8
2017-09-20T06:22:05.414Z,1017.9
2017-09-20T06:27:10.160Z,1017.9
2017-09-20T06:32:15.230Z,1017.9
2017-09-20T06:37:20.624Z,1017.9
2017-09-20T06:42:26.021Z,1017.9
2017-09-20T06:47:31.753Z,1017.9
2017-09-20T06:52:36.491Z,1018
2017-09-20T06:57:42.220Z,1018
2017-09-20T07:02:47.281Z,1018
2017-09-20T07:07:52.005Z,1018.1
2017-09-20T07:12:57.732Z,1018
2017-09-20T07:18:02.123Z,1018.1
2017-09-20T07:23:07.183Z,1018.1
2017-09-20T07:28:12.579Z,1018.1
2017-09-20T07:33:17.975Z,1018.1
2017-09-20T07:38:23.037Z,1018.2
2017-09-20T07:43:28.096Z,1018.2
2017-09-20T07:48:33.490Z,1018.2
2017-09-20T07:53:38.884Z,1018.3
2017-09-20T07:58:44.274Z,1018.3
2017-09-20T08:03:49.336Z,1018.3
2017-09-20T08:08:54.395Z,1018.3
2017-09-20T08:13:59.121Z,1018.4
2017-09-20T08:19:03.848Z,1018.4
2017-09-20T08:24:08.908Z,1018.4
2017-09-20T08:29:14.300Z,1018.4
2017-09-20T08:34:19.358Z,1018.5
2017-09-20T08:39:24.080Z,1018.5
2017-09-20T08:44:29.813Z,1018.5
2017-09-20T08:49:34.540Z,1018.5
2017-09-20T08:54:39.268Z,1018.5
2017-09-20T08:59:43.992Z,1018.5
2017-09-20T09:04:48.718Z,1018.5
2017-09-20T09:09:54.118Z,1018.5
2017-09-20T09:14:58.511Z,1018.5
2017-09-20T09:20:02.899Z,1018.6
2017-09-20T09:25:07.961Z,1018.6
2017-09-20T09:30:12.690Z,1018.6
2017-09-20T09:35:18.757Z,1018.6
2017-09-20T09:40:24.487Z,1018.6
2017-09-20T09:45:30.216Z,1018.7
2017-09-20T09:50:35.613Z,1018.6
2017-09-20T09:55:41.339Z,1018.6
2017-09-20T10:00:46.397Z,1018.7
2017-09-20T10:05:50.451Z,1018.6
2017-09-20T10:10:55.225Z,1018.6
2017-09-20T10:16:00.286Z,1018.6
2017-09-20T10:21:04.676Z,1018.7
2017-09-20T10:26:09.401Z,1018.7
2017-09-20T10:31:14.794Z,1018.7
2017-09-20T10:36:20.185Z,1018.7
2017-09-20T10:41:25.580Z,1018.7
2017-09-20T10:46:31.312Z,1018.7
2017-09-20T10:51:36.707Z,1018.6
2017-09-20T10:56:41.437Z,1018.6
2017-09-20T11:01:46.495Z,1018.6
2017-09-20T11:06:51.886Z,1018.7
2017-09-20T11:11:55.942Z,1018.7
2017-09-20T11:17:00.666Z,1018.7
2017-09-20T11:22:05.395Z,1018.6
2017-09-20T11:27:10.788Z,1018.6
2017-09-20T11:32:16.513Z,1018.6
2017-09-20T11:37:22.246Z,1018.6
2017-09-20T11:42:27.968Z,1018.6
2017-09-20T11:47:33.376Z,1018.6
2017-09-20T11:52:38.101Z,1018.6
2017-09-20T11:57:43.498Z,1018.6
2017-09-20T12:02:48.560Z,1018.6
2017-09-20T12:07:53.952Z,1018.6
2017-09-20T12:12:59.349Z,1018.6
2017-09-20T12:18:04.074Z,1018.7
2017-09-20T12:23:08.801Z,1018.7
2017-09-20T12:28:14.201Z,1018.7
2017-09-20T12:33:19.269Z,1018.7
2017-09-20T12:38:24.337Z,1018.7
2017-09-20T12:43:29.454Z,1018.8
2017-09-20T12:48:34.848Z,1018.8
2017-09-20T12:53:40.245Z,1018.8
2017-09-20T12:58:45.303Z,1018.9
2017-09-20T13:03:51.037Z,1018.9
2017-09-20T13:08:56.426Z,1018.9
2017-09-20T13:14:01.152Z,1018.9
2017-09-20T13:19:05.547Z,1019
2017-09-20T13:24:11.616Z,1019
2017-09-20T13:29:17.018Z,1018.9
2017-09-20T13:34:22.748Z,1019
2017-09-20T13:39:28.150Z,1019
2017-09-20T13:44:32.877Z,1019
2017-09-20T13:49:37.943Z,1019
2017-09-20T13:54:42.999Z,1019
2017-09-20T13:59:48.058Z,1018.9
2017-09-20T14:04:54.132Z,1019
2017-09-20T14:09:59.527Z,1019
2017-09-20T14:15:05.253Z,1018.9
2017-09-20T14:20:10.985Z,1019
2017-09-20T14:25:16.722Z,1019
2017-09-20T14:30:22.118Z,1019
2017-09-20T14:35:27.183Z,1019
2017-09-20T14:40:31.906Z,1019
2017-09-20T14:45:36.633Z,1019.1
2017-09-20T14:50:41.358Z,1019.1
2017-09-20T14:55:46.085Z,1019.1
2017-09-20T15:00:51.816Z,1019.1
2017-09-20T15:05:57.208Z,1019.1
2017-09-20T15:11:01.937Z,1019.1
2017-09-20T15:16:07.330Z,1019.1
2017-09-20T15:21:12.391Z,1019.1
2017-09-20T15:26:18.116Z,1019.1
2017-09-20T15:31:22.507Z,1019.1
2017-09-20T15:36:27.569Z,1019.2
2017-09-20T15:41:32.498Z,1019.3
2017-09-20T15:46:37.557Z,1019.3
2017-09-20T15:51:42.952Z,1019.2
2017-09-20T15:56:48.011Z,1019.2
2017-09-20T16:01:52.733Z,1019.3
2017-09-20T16:06:57.796Z,1019.3
2017-09-20T16:12:03.450Z,1019.3
2017-09-20T16:17:08.509Z,1019.4
2017-09-20T16:22:13.902Z,1019.4
2017-09-20T16:27:18.622Z,1019.5
2017-09-20T16:32:24.015Z,1019.5
2017-09-20T16:37:28.742Z,1019.5
2017-09-20T16:42:34.136Z,1019.5
2017-09-20T16:47:38.864Z,1019.6
2017-09-20T16:52:44.262Z,1019.6
2017-09-20T16:57:48.652Z,1019.6
2017-09-20T17:02:54.380Z,1019.6
2017-09-20T17:07:59.776Z,1019.6
2017-09-20T17:13:05.169Z,1019.7
2017-09-20T17:18:10.900Z,1019.8
2017-09-20T17:23:16.291Z,1019.8
2017-09-20T17:28:21.681Z,1019.7
2017-09-20T17:33:27.126Z,1019.8
2017-09-20T17:38:33.282Z,1019.8
2017-09-20T17:43:39.298Z,1019.8
2017-09-20T17:48:44.696Z,1019.9
2017-09-20T17:53:50.444Z,1019.9
2017-09-20T17:58:56.170Z,1020
2017-09-20T18:04:01.563Z,1020.1
2017-09-20T18:09:06.960Z,1020.2
2017-09-20T18:14:12.023Z,1020.2
2017-09-20T18:19:17.833Z,1020.3
2017-09-20T18:24:22.904Z,1020.3
2017-09-20T18:29:28.656Z,1020.3
2017-09-20T18:34:34.080Z,1020.3
2017-09-20T18:39:39.142Z,1020.3
2017-09-20T18:44:44.873Z,1020.3
2017-09-20T18:49:49.939Z,1020.3
2017-09-20T18:54:55.343Z,1020.4
2017-09-20T19:00:00.123Z,1020.4
2017-09-20T19:05:04.527Z,1020.4
2017-09-20T19:10:10.260Z,1020.3
2017-09-20T19:15:14.988Z,1020.3
2017-09-20T19:20:20.069Z,1020.3
2017-09-20T19:25:26.149Z,1020.4
2017-09-20T19:30:31.601Z,1020.4
2017-09-20T19:35:36.662Z,1020.4
2017-09-20T19:40:42.059Z,1020.3
2017-09-20T19:45:47.793Z,1020.3
2017-09-20T19:50:52.523Z,1020.3
2017-09-20T19:55:57.600Z,1020.3
2017-09-20T20:01:02.867Z,1020.4
2017-09-20T20:06:08.268Z,1020.4
2017-09-20T20:11:12.329Z,1020.4
2017-09-20T20:16:18.068Z,1020.4
2017-09-20T20:21:22.796Z,1020.4
2017-09-20T20:26:28.264Z,1020.4
2017-09-20T20:31:33.341Z,1020.4
2017-09-20T20:36:38.452Z,1020.4
2017-09-20T20:41:44.202Z,1020.4
2017-09-20T20:46:49.609Z,1020.4
2017-09-20T20:51:55.017Z,1020.4
2017-09-20T20:57:00.080Z,1020.4
2017-09-20T21:02:05.149Z,1020.5
2017-09-20T21:07:10.893Z,1020.5
2017-09-20T21:12:16.295Z,1020.6
2017-09-20T21:17:21.691Z,1020.7
2017-09-20T21:22:26.751Z,1020.7
2017-09-20T21:27:31.820Z,1020.8
2017-09-20T21:32:37.219Z,1020.8
2017-09-20T21:37:41.943Z,1020.7
2017-09-20T21:42:47.687Z,1020.5
2017-09-20T21:47:52.746Z,1020.5
2017-09-20T21:52:57.820Z,1020.5
2017-09-20T21:58:02.883Z,1020.4
2017-09-20T22:03:07.951Z,1020.5
2017-09-20T22:08:13.008Z,1020.5
2017-09-20T22:13:18.067Z,1020.6
2017-09-20T22:18:22.787Z,1020.7
2017-09-20T22:23:27.840Z,1020.8
2017-09-20T22:28:32.897Z,1020.7
2017-09-20T22:33:38.293Z,1020.8
2017-09-20T22:38:42.677Z,1020.7
2017-09-20T22:43:48.406Z,1020.7
2017-09-20T22:48:54.133Z,1020.7
2017-09-20T22:53:59.189Z,1020.7
2017-09-20T22:59:03.910Z,1020.7
2017-09-20T23:04:08.968Z,1020.7
2017-09-20T23:09:14.030Z,1020.7
2017-09-20T23:14:19.755Z,1020.7
2017-09-20T23:19:25.149Z,1020.8
2017-09-20T23:24:30.208Z,1020.8
2017-09-20T23:29:35.267Z,1020.9
2017-09-20T23:34:39.985Z,1021
2017-09-20T23:39:45.710Z,1021
2017-09-20T23:44:50.763Z,1021
2017-09-20T23:49:55.816Z,1021
2017-09-20T23:55:00.537Z,1021
